createdAt,value
2022-12-01T00:01:13.806Z,4.41
2022-12-01T00:03:42.739Z,4.38
2022-12-01T00:06:12.654Z,4.39
2022-12-01T00:08:40.179Z,4.39
2022-12-01T00:11:08.474Z,4.38
2022-12-01T00:13:36.479Z,4.35
2022-12-01T00:16:11.283Z,4.34
2022-12-01T00:18:38.855Z,4.33
2022-12-01T00:21:14.241Z,4.33
2022-12-01T00:23:43.933Z,4.33
2022-12-01T00:26:11.432Z,4.34
2022-12-01T00:28:39.090Z,4.34
2022-12-01T00:31:08.224Z,4.32
2022-12-01T00:33:35.767Z,4.31
2022-12-01T00:36:04.604Z,4.29
2022-12-01T00:38:34.654Z,4.26
2022-12-01T00:41:02.632Z,4.25
2022-12-01T00:43:30.140Z,4.24
2022-12-01T00:45:58.058Z,4.26
2022-12-01T00:48:25.817Z,4.24
2022-12-01T00:50:54.216Z,4.24
2022-12-01T00:53:22.621Z,4.24
2022-12-01T00:55:53.791Z,4.23
2022-12-01T00:58:21.508Z,4.23
2022-12-01T01:00:49.089Z,4.24
2022-12-01T01:03:16.933Z,4.25
2022-12-01T01:05:45.097Z,4.26
2022-12-01T01:08:14.844Z,4.26
2022-12-01T01:10:44.235Z,4.22
2022-12-01T01:13:14.037Z,4.21
2022-12-01T01:15:41.884Z,4.21
2022-12-01T01:18:09.803Z,4.21
2022-12-01T01:20:37.372Z,4.21
2022-12-01T01:23:04.927Z,4.22
2022-12-01T01:25:32.704Z,4.23
2022-12-01T01:28:00.260Z,4.25
2022-12-01T01:30:29.229Z,4.25
2022-12-01T01:32:56.809Z,4.24
2022-12-01T01:35:24.328Z,4.22
2022-12-01T01:37:51.902Z,4.21
2022-12-01T01:40:19.834Z,4.19
2022-12-01T01:42:47.376Z,4.17
2022-12-01T01:45:22.080Z,4.15
2022-12-01T01:47:52.887Z,4.12
2022-12-01T01:50:24.205Z,4.09
2022-12-01T01:52:56.433Z,4.06
2022-12-01T01:55:24.013Z,4.05
2022-12-01T01:57:51.636Z,4.03
2022-12-01T02:00:22.044Z,4.02
2022-12-01T02:02:51.658Z,4.01
2022-12-01T02:05:22.654Z,3.98
2022-12-01T02:07:51.960Z,3.98
2022-12-01T02:10:23.272Z,3.98
2022-12-01T02:13:03.188Z,3.98
2022-12-01T02:15:36.833Z,3.95
2022-12-01T02:18:22.348Z,3.94
2022-12-01T02:21:17.118Z,3.95
2022-12-01T02:24:13.000Z,3.91
2022-12-01T02:26:50.759Z,3.87
2022-12-01T02:29:54.460Z,3.85
2022-12-01T02:32:30.007Z,3.84
2022-12-01T02:35:00.898Z,3.82
2022-12-01T02:37:34.089Z,3.80
2022-12-01T02:40:11.504Z,3.81
2022-12-01T02:42:53.512Z,3.81
2022-12-01T02:45:29.054Z,3.82
2022-12-01T02:48:02.003Z,3.82
2022-12-01T02:50:32.178Z,3.81
2022-12-01T02:53:02.148Z,3.81
2022-12-01T02:55:29.698Z,3.82
2022-12-01T02:57:57.285Z,3.80
2022-12-01T03:00:24.929Z,3.81
2022-12-01T03:03:14.093Z,3.80
2022-12-01T03:05:51.650Z,3.79
2022-12-01T03:08:27.973Z,3.77
2022-12-01T03:10:57.834Z,3.78
2022-12-01T03:13:39.041Z,3.80
2022-12-01T03:16:12.695Z,3.79
2022-12-01T03:18:47.296Z,3.78
2022-12-01T03:21:22.694Z,3.78
2022-12-01T03:23:55.901Z,3.77
2022-12-01T03:26:26.575Z,3.76
2022-12-01T03:28:57.735Z,3.77
2022-12-01T03:31:30.042Z,3.78
2022-12-01T03:34:04.147Z,3.77
2022-12-01T03:36:38.256Z,3.77
2022-12-01T03:39:13.023Z,3.77
2022-12-01T03:41:47.897Z,3.75
2022-12-01T03:44:20.170Z,3.76
2022-12-01T03:46:52.640Z,3.76
2022-12-01T03:49:24.635Z,3.76
2022-12-01T03:52:01.736Z,3.76
2022-12-01T03:54:39.353Z,3.75
2022-12-01T03:57:12.702Z,3.75
2022-12-01T03:59:41.683Z,3.75
2022-12-01T04:02:09.483Z,3.71
2022-12-01T04:04:38.469Z,3.72
2022-12-01T04:07:06.246Z,3.71
2022-12-01T04:09:33.790Z,3.74
2022-12-01T04:12:18.789Z,3.74
2022-12-01T04:14:46.292Z,3.76
2022-12-01T04:17:13.803Z,3.76
2022-12-01T04:19:42.655Z,3.76
2022-12-01T04:22:10.187Z,3.77
2022-12-01T04:24:37.713Z,3.77
2022-12-01T04:27:05.424Z,3.80
2022-12-01T04:29:32.943Z,3.82
2022-12-01T04:32:00.531Z,3.83
2022-12-01T04:34:28.158Z,3.85
2022-12-01T04:36:57.076Z,3.87
2022-12-01T04:39:24.603Z,3.88
2022-12-01T04:41:52.125Z,3.89
2022-12-01T04:44:19.649Z,3.89
2022-12-01T04:46:47.319Z,3.90
2022-12-01T04:49:15.079Z,3.89
2022-12-01T04:51:42.567Z,3.91
2022-12-01T04:54:11.535Z,3.91
2022-12-01T04:56:39.170Z,3.94
2022-12-01T04:59:06.838Z,3.96
2022-12-01T05:01:34.549Z,3.94
2022-12-01T05:04:02.203Z,3.96
2022-12-01T05:06:30.247Z,3.98
2022-12-01T05:08:59.903Z,4.02
2022-12-01T05:11:30.466Z,4.04
2022-12-01T05:13:58.218Z,4.05
2022-12-01T05:16:27.786Z,4.05
2022-12-01T05:19:18.214Z,4.04
2022-12-01T05:21:46.603Z,4.04
2022-12-01T05:24:15.049Z,4.06
2022-12-01T05:26:44.795Z,4.06
2022-12-01T05:29:13.464Z,4.04
2022-12-01T05:31:41.278Z,4.07
2022-12-01T05:34:09.072Z,4.07
2022-12-01T05:36:36.731Z,4.09
2022-12-01T05:39:04.832Z,4.09
2022-12-01T05:41:32.461Z,4.12
2022-12-01T05:44:01.382Z,4.15
2022-12-01T05:46:29.056Z,4.16
2022-12-01T05:48:56.632Z,4.15
2022-12-01T05:51:24.176Z,4.14
2022-12-01T05:53:51.720Z,4.13
2022-12-01T05:56:19.233Z,4.15
2022-12-01T05:58:46.773Z,4.15
2022-12-01T06:01:15.933Z,4.16
2022-12-01T06:03:43.487Z,4.15
2022-12-01T06:06:11.151Z,4.14
2022-12-01T06:08:38.819Z,4.15
2022-12-01T06:11:06.968Z,4.15
2022-12-01T06:13:34.564Z,4.17
2022-12-01T06:16:03.953Z,4.17
2022-12-01T06:18:34.795Z,4.17
2022-12-01T06:21:02.562Z,4.13
2022-12-01T06:23:30.728Z,4.16
2022-12-01T06:25:58.449Z,4.18
2022-12-01T06:28:26.089Z,4.19
2022-12-01T06:30:56.647Z,4.19
2022-12-01T06:33:28.737Z,4.19
2022-12-01T06:36:00.184Z,4.16
2022-12-01T06:38:27.913Z,4.16
2022-12-01T06:40:55.438Z,4.16
2022-12-01T06:43:22.972Z,4.15
2022-12-01T06:45:50.762Z,4.12
2022-12-01T06:48:18.498Z,4.10
2022-12-01T06:50:46.005Z,4.06
2022-12-01T06:53:15.022Z,4.04
2022-12-01T06:55:42.537Z,3.99
2022-12-01T06:58:10.305Z,3.98
2022-12-01T07:00:38.030Z,3.96
2022-12-01T07:03:05.619Z,3.92
2022-12-01T07:05:33.153Z,3.90
2022-12-01T07:08:01.127Z,3.90
2022-12-01T07:10:30.022Z,3.91
2022-12-01T07:12:57.998Z,3.90
2022-12-01T07:15:25.519Z,3.89
2022-12-01T07:17:53.045Z,3.89
2022-12-01T07:20:20.714Z,3.88
2022-12-01T07:22:48.303Z,3.88
2022-12-01T07:25:16.054Z,3.89
2022-12-01T07:27:45.233Z,3.90
2022-12-01T07:30:13.382Z,3.91
2022-12-01T07:32:40.969Z,3.94
2022-12-01T07:35:10.187Z,3.94
2022-12-01T07:37:37.742Z,3.96
2022-12-01T07:40:06.498Z,3.98
2022-12-01T07:42:34.034Z,4.00
2022-12-01T07:45:02.974Z,4.00
2022-12-01T07:47:30.627Z,4.02
2022-12-01T07:49:58.133Z,4.02
2022-12-01T07:52:25.747Z,4.05
2022-12-01T07:54:53.260Z,4.05
2022-12-01T07:57:20.795Z,4.09
2022-12-01T07:59:48.551Z,4.13
2022-12-01T08:02:17.741Z,4.19
2022-12-01T08:04:45.377Z,4.23
2022-12-01T08:07:12.919Z,4.24
2022-12-01T08:09:40.447Z,4.26
2022-12-01T08:12:09.388Z,4.27
2022-12-01T08:14:37.075Z,4.26
2022-12-01T08:17:04.590Z,4.28
2022-12-01T08:19:33.466Z,4.26
2022-12-01T08:22:01.041Z,4.26
2022-12-01T08:24:28.597Z,4.26
2022-12-01T08:26:56.363Z,4.29
2022-12-01T08:29:23.951Z,4.34
2022-12-01T08:31:51.497Z,4.39
2022-12-01T08:34:20.082Z,4.40
2022-12-01T08:36:48.918Z,4.42
2022-12-01T08:39:16.692Z,4.42
2022-12-01T08:41:44.343Z,4.44
2022-12-01T08:44:12.252Z,4.47
2022-12-01T08:46:39.881Z,4.51
2022-12-01T08:49:08.080Z,4.54
2022-12-01T08:51:36.311Z,4.56
2022-12-01T08:54:05.790Z,4.56
2022-12-01T08:56:35.378Z,4.54
2022-12-01T08:59:03.116Z,4.54
2022-12-01T09:01:30.711Z,4.50
2022-12-01T09:04:09.280Z,4.46
2022-12-01T09:06:40.636Z,4.45
2022-12-01T09:09:10.918Z,4.44
2022-12-01T09:11:38.635Z,4.45
2022-12-01T09:14:06.295Z,4.45
2022-12-01T09:16:33.932Z,4.43
2022-12-01T09:19:01.518Z,4.45
2022-12-01T09:21:31.285Z,4.46
2022-12-01T09:23:59.402Z,4.48
2022-12-01T09:26:28.754Z,4.47
2022-12-01T09:28:58.371Z,4.46
2022-12-01T09:31:26.533Z,4.47
2022-12-01T09:33:58.350Z,4.48
2022-12-01T09:36:26.242Z,4.48
2022-12-01T09:38:53.798Z,4.44
2022-12-01T09:41:25.000Z,4.45
2022-12-01T09:44:05.614Z,4.45
2022-12-01T09:46:38.364Z,4.46
2022-12-01T09:49:07.484Z,4.50
2022-12-01T09:51:36.188Z,4.47
2022-12-01T09:54:04.291Z,4.46
2022-12-01T09:56:35.175Z,4.45
2022-12-01T09:59:08.102Z,4.46
2022-12-01T10:01:38.940Z,4.47
2022-12-01T10:04:14.485Z,4.51
2022-12-01T10:06:49.948Z,4.54
2022-12-01T10:09:25.258Z,4.54
2022-12-01T10:11:56.068Z,4.57
2022-12-01T10:14:25.028Z,4.64
2022-12-01T10:17:03.509Z,4.71
2022-12-01T10:19:38.806Z,4.77
2022-12-01T10:22:32.728Z,4.80
2022-12-01T10:25:06.776Z,4.82
2022-12-01T10:27:47.480Z,4.84
2022-12-01T10:30:18.520Z,4.85
2022-12-01T10:32:53.092Z,4.87
2022-12-01T10:35:22.750Z,4.87
2022-12-01T10:37:54.806Z,4.90
2022-12-01T10:40:22.903Z,4.95
2022-12-01T10:42:51.753Z,4.97
2022-12-01T10:45:25.011Z,4.99
2022-12-01T10:48:15.282Z,5.02
2022-12-01T10:50:44.222Z,5.03
2022-12-01T10:53:28.650Z,5.04
2022-12-01T10:56:07.385Z,5.00
2022-12-01T10:58:43.271Z,4.97
2022-12-01T11:01:19.409Z,4.98
2022-12-01T11:03:52.900Z,4.97
2022-12-01T11:06:26.869Z,4.98
2022-12-01T11:08:57.533Z,5.00
2022-12-01T11:11:30.025Z,5.02
2022-12-01T11:14:00.792Z,5.03
2022-12-01T11:16:39.018Z,5.05
2022-12-01T11:19:27.205Z,5.06
2022-12-01T11:21:57.559Z,5.05
2022-12-01T11:24:40.308Z,5.05
2022-12-01T11:27:17.016Z,5.05
2022-12-01T11:29:47.301Z,5.06
2022-12-01T11:32:22.738Z,5.07
2022-12-01T11:34:54.354Z,5.10
2022-12-01T11:37:25.272Z,5.15
2022-12-01T11:39:53.577Z,5.17
2022-12-01T11:42:26.574Z,5.18
2022-12-01T11:44:56.487Z,5.20
2022-12-01T11:47:27.383Z,5.18
2022-12-01T11:49:57.556Z,5.19
2022-12-01T11:52:31.628Z,5.21
2022-12-01T11:55:09.548Z,5.24
2022-12-01T11:57:39.894Z,5.29
2022-12-01T12:00:14.685Z,5.34
2022-12-01T12:02:56.707Z,5.38
2022-12-01T12:06:17.848Z,5.41
2022-12-01T12:09:02.221Z,5.44
2022-12-01T12:11:39.093Z,5.43
2022-12-01T12:14:23.613Z,5.43
2022-12-01T12:17:03.519Z,5.39
2022-12-01T12:20:07.248Z,5.40
2022-12-01T12:22:44.146Z,5.40
2022-12-01T12:25:25.809Z,5.41
2022-12-01T12:28:08.314Z,5.41
2022-12-01T12:30:43.562Z,5.42
2022-12-01T12:33:29.715Z,5.43
2022-12-01T12:36:08.016Z,5.46
2022-12-01T12:38:49.249Z,5.48
2022-12-01T12:41:29.522Z,5.48
2022-12-01T12:44:11.780Z,5.46
2022-12-01T12:46:50.892Z,5.47
2022-12-01T12:49:29.016Z,5.48
2022-12-01T12:52:08.186Z,5.49
2022-12-01T12:54:46.198Z,5.51
2022-12-01T12:57:22.514Z,5.52
2022-12-01T12:59:54.561Z,5.55
2022-12-01T13:02:27.609Z,5.56
2022-12-01T13:05:01.621Z,5.58
2022-12-01T13:07:38.346Z,5.57
2022-12-01T13:10:13.090Z,5.56
2022-12-01T13:12:46.848Z,5.57
2022-12-01T13:15:16.927Z,5.61
2022-12-01T13:17:47.583Z,5.62
2022-12-01T13:20:17.532Z,5.63
2022-12-01T13:22:48.276Z,5.66
2022-12-01T13:25:19.376Z,5.70
2022-12-01T13:27:49.061Z,5.71
2022-12-01T13:30:22.127Z,5.70
2022-12-01T13:32:50.886Z,5.70
2022-12-01T13:35:30.049Z,5.69
2022-12-01T13:38:20.643Z,5.66
2022-12-01T13:40:48.795Z,5.67
2022-12-01T13:43:19.628Z,5.70
2022-12-01T13:45:48.888Z,5.73
2022-12-01T13:48:30.927Z,5.76
2022-12-01T13:51:01.081Z,5.79
2022-12-01T13:53:32.816Z,5.81
2022-12-01T13:56:27.629Z,5.85
2022-12-01T13:58:56.237Z,5.87
2022-12-01T14:01:49.191Z,5.87
2022-12-01T14:04:28.457Z,5.84
2022-12-01T14:07:15.820Z,5.84
2022-12-01T14:09:45.050Z,5.83
2022-12-01T14:12:18.863Z,5.84
2022-12-01T14:14:54.859Z,5.86
2022-12-01T14:17:29.196Z,5.87
2022-12-01T14:20:06.852Z,5.86
2022-12-01T14:22:37.964Z,5.83
2022-12-01T14:25:22.437Z,5.82
2022-12-01T14:27:52.428Z,5.83
2022-12-01T14:30:57.453Z,5.81
2022-12-01T14:33:53.874Z,5.86
2022-12-01T14:36:33.616Z,5.85
2022-12-01T14:39:05.307Z,5.83
2022-12-01T14:41:43.133Z,5.83
2022-12-01T14:44:19.656Z,5.84
2022-12-01T14:46:52.667Z,5.85
2022-12-01T14:49:24.580Z,5.83
2022-12-01T14:51:57.320Z,5.83
2022-12-01T14:54:27.013Z,5.85
2022-12-01T14:57:04.452Z,5.82
2022-12-01T14:59:34.215Z,5.80
2022-12-01T15:02:08.972Z,5.81
2022-12-01T15:04:37.513Z,5.83
2022-12-01T15:07:05.107Z,5.84
2022-12-01T15:09:34.475Z,5.84
2022-12-01T15:12:07.522Z,5.84
2022-12-01T15:14:37.605Z,5.82
2022-12-01T15:17:06.897Z,5.84
2022-12-01T15:19:37.236Z,5.85
2022-12-01T15:22:08.480Z,5.85
2022-12-01T15:24:36.282Z,5.87
2022-12-01T15:27:06.029Z,5.88
2022-12-01T15:29:42.797Z,5.90
2022-12-01T15:32:16.879Z,5.88
2022-12-01T15:34:47.201Z,5.86
2022-12-01T15:37:16.776Z,5.83
2022-12-01T15:39:46.545Z,5.83
2022-12-01T15:42:23.944Z,5.84
2022-12-01T15:45:00.504Z,5.84
2022-12-01T15:47:35.677Z,5.82
2022-12-01T15:50:03.688Z,5.83
2022-12-01T15:52:31.512Z,5.82
2022-12-01T15:55:03.819Z,5.85
2022-12-01T15:57:32.811Z,5.85
2022-12-01T16:00:00.387Z,5.84
2022-12-01T16:02:31.068Z,5.84
2022-12-01T16:05:04.273Z,5.84
2022-12-01T16:08:10.783Z,5.85
2022-12-01T16:10:28.399Z,5.86
2022-12-01T16:13:29.404Z,5.85
2022-12-01T16:15:58.343Z,5.85
2022-12-01T16:18:30.407Z,5.84
2022-12-01T16:21:03.864Z,5.84
2022-12-01T16:23:32.745Z,5.82
2022-12-01T16:26:02.074Z,5.79
2022-12-01T16:28:35.615Z,5.78
2022-12-01T16:31:06.388Z,5.76
2022-12-01T16:33:38.634Z,5.75
2022-12-01T16:36:06.828Z,5.72
2022-12-01T16:38:34.346Z,5.67
2022-12-01T16:41:03.424Z,5.64
2022-12-01T16:43:30.948Z,5.66
2022-12-01T16:46:00.483Z,5.68
2022-12-01T16:48:30.317Z,5.65
2022-12-01T16:51:00.576Z,5.65
2022-12-01T16:53:28.153Z,5.65
2022-12-01T16:55:57.384Z,5.62
2022-12-01T16:58:25.314Z,5.62
2022-12-01T17:00:53.734Z,5.60
2022-12-01T17:03:23.467Z,5.54
2022-12-01T17:05:54.635Z,5.56
2022-12-01T17:08:22.635Z,5.56
2022-12-01T17:10:51.906Z,5.58
2022-12-01T17:13:21.583Z,5.59
2022-12-01T17:15:51.346Z,5.61
2022-12-01T17:18:22.108Z,5.64
2022-12-01T17:20:59.275Z,5.66
2022-12-01T17:23:27.337Z,5.67
2022-12-01T17:25:55.119Z,5.68
2022-12-01T17:28:22.970Z,5.66
2022-12-01T17:30:51.028Z,5.66
2022-12-01T17:33:19.083Z,5.67
2022-12-01T17:35:46.836Z,5.67
2022-12-01T17:38:15.744Z,5.65
2022-12-01T17:40:43.337Z,5.64
2022-12-01T17:43:10.975Z,5.63
2022-12-01T17:45:41.934Z,5.61
2022-12-01T17:48:09.864Z,5.58
2022-12-01T17:50:38.809Z,5.56
2022-12-01T17:53:06.483Z,5.57
2022-12-01T17:55:35.446Z,5.58
2022-12-01T17:58:03.687Z,5.56
2022-12-01T18:00:31.368Z,5.56
2022-12-01T18:02:59.087Z,5.58
2022-12-01T18:05:29.337Z,5.60
2022-12-01T18:07:57.051Z,5.61
2022-12-01T18:10:24.812Z,5.63
2022-12-01T18:12:54.042Z,5.62
2022-12-01T18:15:21.553Z,5.64
2022-12-01T18:17:49.056Z,5.62
2022-12-01T18:20:16.599Z,5.61
2022-12-01T18:22:44.139Z,5.62
2022-12-01T18:25:12.508Z,5.61
2022-12-01T18:27:40.110Z,5.58
2022-12-01T18:30:10.699Z,5.59
2022-12-01T18:32:38.255Z,5.58
2022-12-01T18:35:09.838Z,5.61
2022-12-01T18:37:37.637Z,5.60
2022-12-01T18:40:06.170Z,5.58
2022-12-01T18:42:33.704Z,5.55
2022-12-01T18:45:01.285Z,5.54
2022-12-01T18:47:30.712Z,5.55
2022-12-01T18:49:58.246Z,5.56
2022-12-01T18:52:26.334Z,5.58
2022-12-01T18:54:54.715Z,5.60
2022-12-01T18:57:22.281Z,5.58
2022-12-01T18:59:50.684Z,5.56
2022-12-01T19:02:18.289Z,5.55
2022-12-01T19:04:49.997Z,5.55
2022-12-01T19:07:17.862Z,5.55
2022-12-01T19:09:45.397Z,5.57
2022-12-01T19:12:12.935Z,5.55
2022-12-01T19:14:40.449Z,5.55
2022-12-01T19:17:08.035Z,5.54
2022-12-01T19:19:37.661Z,5.51
2022-12-01T19:22:06.830Z,5.50
2022-12-01T19:24:48.620Z,5.52
2022-12-01T19:27:17.983Z,5.54
2022-12-01T19:29:45.495Z,5.55
2022-12-01T19:32:13.159Z,5.54
2022-12-01T19:34:40.645Z,5.54
2022-12-01T19:37:09.528Z,5.52
2022-12-01T19:39:37.104Z,5.54
2022-12-01T19:42:05.080Z,5.55
2022-12-01T19:44:32.644Z,5.57
2022-12-01T19:47:00.156Z,5.59
2022-12-01T19:49:27.828Z,5.55
2022-12-01T19:51:55.380Z,5.55
2022-12-01T19:54:24.240Z,5.54
2022-12-01T19:56:51.770Z,5.53
2022-12-01T19:59:19.362Z,5.50
2022-12-01T20:01:47.027Z,5.52
2022-12-01T20:04:14.684Z,5.53
2022-12-01T20:06:42.386Z,5.53
2022-12-01T20:09:10.484Z,5.54
2022-12-01T20:11:39.391Z,5.54
2022-12-01T20:14:08.342Z,5.55
2022-12-01T20:16:35.964Z,5.58
2022-12-01T20:19:04.828Z,5.58
2022-12-01T20:21:35.031Z,5.54
2022-12-01T20:24:05.306Z,5.54
2022-12-01T20:26:34.951Z,5.52
2022-12-01T20:29:08.582Z,5.53
2022-12-01T20:31:36.818Z,5.53
2022-12-01T20:34:08.269Z,5.51
2022-12-01T20:36:36.622Z,5.51
2022-12-01T20:39:05.693Z,5.47
2022-12-01T20:41:34.645Z,5.45
2022-12-01T20:44:07.020Z,5.45
2022-12-01T20:46:36.895Z,5.47
2022-12-01T20:49:05.594Z,5.48
2022-12-01T20:51:33.496Z,5.52
2022-12-01T20:54:26.859Z,5.54
2022-12-01T20:56:48.938Z,5.53
2022-12-01T20:59:16.472Z,5.53
2022-12-01T21:01:45.362Z,5.51
2022-12-01T21:04:12.876Z,5.50
2022-12-01T21:06:40.378Z,5.49
2022-12-01T21:09:08.386Z,5.50
2022-12-01T21:12:00.729Z,5.51
2022-12-01T21:14:31.117Z,5.54
2022-12-01T21:17:04.884Z,5.51
2022-12-01T21:19:42.099Z,5.50
2022-12-01T21:22:11.710Z,5.49
2022-12-01T21:24:43.751Z,5.51
2022-12-01T21:27:14.651Z,5.53
2022-12-01T21:29:44.722Z,5.51
2022-12-01T21:32:15.638Z,5.48
2022-12-01T21:34:44.171Z,5.49
2022-12-01T21:37:21.937Z,5.51
2022-12-01T21:39:50.930Z,5.57
2022-12-01T21:42:20.753Z,5.59
2022-12-01T21:44:49.393Z,5.60
2022-12-01T21:47:21.385Z,5.61
2022-12-01T21:49:51.802Z,5.58
2022-12-01T21:52:21.370Z,5.60
2022-12-01T21:54:49.132Z,5.62
2022-12-01T21:57:33.951Z,5.64
2022-12-01T22:00:26.671Z,5.63
2022-12-01T22:03:23.019Z,5.63
2022-12-01T22:06:21.357Z,5.62
2022-12-01T22:08:44.015Z,5.63
2022-12-01T22:11:15.852Z,5.60
2022-12-01T22:13:45.682Z,5.58
2022-12-01T22:16:16.949Z,5.56
2022-12-01T22:18:50.457Z,5.55
2022-12-01T22:21:49.107Z,5.57
2022-12-01T22:24:27.624Z,5.54
2022-12-01T22:27:07.302Z,5.53
2022-12-01T22:29:40.422Z,5.55
2022-12-01T22:32:37.173Z,5.53
2022-12-01T22:35:21.379Z,5.55
2022-12-01T22:37:50.302Z,5.54
2022-12-01T22:40:37.257Z,5.54
2022-12-01T22:43:27.622Z,5.53
2022-12-01T22:46:16.468Z,5.53
2022-12-01T22:48:45.555Z,5.52
2022-12-01T22:51:26.980Z,5.52
2022-12-01T22:53:59.570Z,5.51
2022-12-01T22:56:30.882Z,5.51
2022-12-01T22:58:58.787Z,5.53
2022-12-01T23:01:29.073Z,5.53
2022-12-01T23:04:21.014Z,5.55
2022-12-01T23:06:59.822Z,5.59
2022-12-01T23:09:32.205Z,5.61
2022-12-01T23:12:05.316Z,5.65
2022-12-01T23:14:34.380Z,5.65
2022-12-01T23:17:07.951Z,5.69
2022-12-01T23:19:35.874Z,5.69
2022-12-01T23:22:04.725Z,5.67
2022-12-01T23:24:34.032Z,5.64
2022-12-01T23:27:01.986Z,5.64
2022-12-01T23:29:30.562Z,5.62
2022-12-01T23:31:58.116Z,5.62
2022-12-01T23:34:25.616Z,5.61
2022-12-01T23:36:53.618Z,5.60
2022-12-01T23:39:31.020Z,5.58
2022-12-01T23:41:59.288Z,5.58
2022-12-01T23:44:37.898Z,5.57
2022-12-01T23:47:17.728Z,5.56
2022-12-01T23:49:46.296Z,5.54
2022-12-01T23:52:19.446Z,5.55
2022-12-01T23:54:49.279Z,5.56
2022-12-01T23:57:21.406Z,5.60
2022-12-01T23:59:50.261Z,5.60
